createdAt,value
2022-08-05T00:00:52.682Z,95386.13
2022-08-05T00:03:19.886Z,95387.66
2022-08-05T00:06:04.935Z,95385.31
2022-08-05T00:08:36.137Z,95387.63
2022-08-05T00:11:20.292Z,95387.56
2022-08-05T00:13:52.919Z,95382.84
2022-08-05T00:16:35.318Z,95390.22
2022-08-05T00:19:03.826Z,95389.44
2022-08-05T00:21:30.910Z,95383.09
2022-08-05T00:24:10.528Z,95387.00
2022-08-05T00:26:38.609Z,95377.16
2022-08-05T00:29:05.837Z,95378.69
2022-08-05T00:31:53.696Z,95376.28
2022-08-05T00:34:55.794Z,95375.09
2022-08-05T00:37:12.593Z,95369.53
2022-08-05T00:39:44.133Z,95378.44
2022-08-05T00:42:31.766Z,95374.47
2022-08-05T00:44:59.711Z,95367.34
2022-08-05T00:47:27.232Z,95376.75
2022-08-05T00:50:14.036Z,95366.94
2022-08-05T00:52:42.342Z,95373.22
2022-08-05T00:55:12.661Z,95366.13
2022-08-05T00:57:58.643Z,95363.78
2022-08-05T01:00:27.584Z,95365.72
2022-08-05T01:02:55.579Z,95360.59
2022-08-05T01:05:27.511Z,95362.56
2022-08-05T01:08:41.838Z,95362.13
2022-08-05T01:10:52.426Z,95360.16
2022-08-05T01:13:27.448Z,95354.69
2022-08-05T01:16:16.017Z,95353.09
2022-08-05T01:18:58.052Z,95349.91
2022-08-05T01:21:40.209Z,95358.16
2022-08-05T01:24:46.984Z,95353.84
2022-08-05T01:28:14.917Z,95353.06
2022-08-05T01:30:55.298Z,95350.69
2022-08-05T01:33:25.257Z,95341.22
2022-08-05T01:35:55.376Z,95338.81
2022-08-05T01:38:29.209Z,95346.31
2022-08-05T01:41:01.572Z,95346.66
2022-08-05T01:43:30.338Z,95339.59
2022-08-05T01:46:07.242Z,95342.25
2022-08-05T01:48:45.022Z,95344.22
2022-08-05T01:51:18.063Z,95348.91
2022-08-05T01:53:56.947Z,95350.09
2022-08-05T01:58:14.621Z,95339.81
2022-08-05T01:59:21.639Z,95337.72
2022-08-05T02:01:49.838Z,95338.81
2022-08-05T02:04:17.886Z,95338.00
2022-08-05T02:06:45.229Z,95343.47
2022-08-05T02:09:12.364Z,95344.63
2022-08-05T02:11:52.232Z,95341.88
2022-08-05T02:14:32.436Z,95343.03
2022-08-05T02:17:16.982Z,95340.31
2022-08-05T02:20:01.886Z,95345.31
2022-08-05T02:22:30.752Z,95353.47
2022-08-05T02:25:03.667Z,95347.13
2022-08-05T02:27:59.616Z,95347.13
2022-08-05T02:30:22.390Z,95344.66
2022-08-05T02:32:51.341Z,95359.47
2022-08-05T02:35:28.027Z,95358.25
2022-08-05T02:38:02.167Z,95349.63
2022-08-05T02:40:30.850Z,95346.44
2022-08-05T02:42:59.709Z,95349.09
2022-08-05T02:45:28.455Z,95349.50
2022-08-05T02:48:06.839Z,95352.16
2022-08-05T02:50:43.790Z,95349.38
2022-08-05T02:53:18.984Z,95347.78
2022-08-05T02:55:54.301Z,95339.91
2022-08-05T02:58:28.964Z,95336.28
2022-08-05T03:00:59.564Z,95338.97
2022-08-05T03:03:34.361Z,95335.00
2022-08-05T03:06:55.095Z,95332.56
2022-08-05T03:09:05.113Z,95326.25
2022-08-05T03:11:55.420Z,95326.59
2022-08-05T03:14:24.455Z,95326.97
2022-08-05T03:16:53.679Z,95321.03
2022-08-05T03:19:34.637Z,95318.66
2022-08-05T03:22:05.012Z,95322.59
2022-08-05T03:24:44.682Z,95322.16
2022-08-05T03:27:15.915Z,95316.22
2022-08-05T03:29:45.424Z,95322.06
2022-08-05T03:32:30.965Z,95319.28
2022-08-05T03:34:59.343Z,95314.50
2022-08-05T03:37:27.877Z,95314.06
2022-08-05T03:40:01.183Z,95322.63
2022-08-05T03:42:33.033Z,95317.97
2022-08-05T03:45:21.661Z,95313.19
2022-08-05T03:47:50.452Z,95320.97
2022-08-05T03:50:17.745Z,95315.06
2022-08-05T03:55:34.325Z,95315.06
2022-08-05T03:56:10.053Z,95317.72
2022-08-05T03:58:29.288Z,95311.81
2022-08-05T04:00:57.968Z,95310.97
2022-08-05T04:03:29.217Z,95302.66
2022-08-05T04:05:58.081Z,95308.16
2022-08-05T04:08:35.120Z,95309.31
2022-08-05T04:11:05.135Z,95310.88
2022-08-05T04:13:51.106Z,95311.31
2022-08-05T04:16:24.855Z,95312.47
2022-08-05T04:18:53.864Z,95320.28
2022-08-05T04:22:09.258Z,95319.84
2022-08-05T04:24:19.153Z,95341.75
2022-08-05T04:26:49.613Z,95370.97
2022-08-05T04:29:17.182Z,95383.53
2022-08-05T04:31:44.241Z,95359.31
2022-08-05T04:34:18.361Z,95382.88
2022-08-05T04:36:59.243Z,95393.13
2022-08-05T04:39:28.105Z,95363.50
2022-08-05T04:41:55.943Z,95384.84
2022-08-05T04:44:29.837Z,95392.44
2022-08-05T04:46:58.781Z,95389.06
2022-08-05T04:49:38.722Z,95370.09
2022-08-05T04:52:13.997Z,95370.44
2022-08-05T04:54:42.566Z,95367.59
2022-08-05T04:57:09.655Z,95373.47
2022-08-05T04:59:39.007Z,95376.53
2022-08-05T05:02:36.841Z,95369.53
2022-08-05T05:05:01.837Z,95378.94
2022-08-05T05:07:32.317Z,95382.00
2022-08-05T05:10:04.253Z,95385.47
2022-08-05T05:12:31.738Z,95376.75
2022-08-05T05:14:58.903Z,95367.47
2022-08-05T05:17:56.511Z,95377.09
2022-08-05T05:20:28.553Z,95393.03
2022-08-05T05:22:56.968Z,95385.44
2022-08-05T05:25:32.821Z,95385.59
2022-08-05T05:28:08.517Z,95388.50
2022-08-05T05:30:37.247Z,95389.41
2022-08-05T05:33:16.001Z,95381.88
2022-08-05T05:35:45.300Z,95377.69
2022-08-05T05:38:13.817Z,95385.91
2022-08-05T05:40:49.707Z,95380.88
2022-08-05T05:43:57.345Z,95375.13
2022-08-05T05:46:45.286Z,95382.22
2022-08-05T05:49:22.671Z,95391.16
2022-08-05T05:51:50.890Z,95387.66
2022-08-05T05:54:20.721Z,95379.56
2022-08-05T05:56:49.761Z,95379.63
2022-08-05T05:59:17.218Z,95382.81
2022-08-05T06:01:57.631Z,95384.66
2022-08-05T06:04:25.321Z,95389.00
2022-08-05T06:06:53.791Z,95401.97
2022-08-05T06:09:25.750Z,95420.41
2022-08-05T06:13:06.154Z,95420.84
2022-08-05T06:16:28.194Z,95429.38
2022-08-05T06:18:44.928Z,95432.56
2022-08-05T06:21:16.639Z,95432.88
2022-08-05T06:23:46.001Z,95428.66
2022-08-05T06:26:20.899Z,95433.28
2022-08-05T06:28:48.826Z,95435.94
2022-08-05T06:31:17.986Z,95432.88
2022-08-05T06:34:07.263Z,95433.63
2022-08-05T06:36:56.709Z,95431.34
2022-08-05T06:39:26.867Z,95438.28
2022-08-05T06:41:58.862Z,95449.25
2022-08-05T06:44:30.135Z,95458.59
2022-08-05T06:48:44.390Z,95445.94
2022-08-05T06:51:09.923Z,95438.50
2022-08-05T06:53:39.110Z,95433.19
2022-08-05T06:56:26.131Z,95452.31
2022-08-05T06:58:54.715Z,95445.75
2022-08-05T07:01:22.699Z,95457.19
2022-08-05T07:03:50.005Z,95479.78
2022-08-05T07:06:20.618Z,95468.53
2022-08-05T07:08:51.943Z,95503.50
2022-08-05T07:11:25.408Z,95493.72
2022-08-05T07:14:20.735Z,95500.88
2022-08-05T07:18:00.824Z,95509.44
2022-08-05T07:22:35.640Z,95521.47
2022-08-05T07:25:23.981Z,95520.22
2022-08-05T07:27:58.503Z,95515.94
2022-08-05T07:30:34.519Z,95525.06
2022-08-05T07:33:09.955Z,95514.78
2022-08-05T07:36:04.657Z,95522.88
2022-08-05T07:38:33.580Z,95532.50
2022-08-05T07:42:09.396Z,95530.22
2022-08-05T07:43:56.274Z,95541.91
2022-08-05T07:46:26.044Z,95543.44
2022-08-05T07:49:03.125Z,95553.47
2022-08-05T07:51:40.378Z,95536.78
2022-08-05T07:54:11.513Z,95547.06
2022-08-05T07:57:01.507Z,95552.72
2022-08-05T07:59:38.393Z,95559.13
2022-08-05T08:02:16.996Z,95561.53
2022-08-05T08:04:49.504Z,95558.41
2022-08-05T08:07:28.421Z,95562.13
2022-08-05T08:10:01.186Z,95560.31
2022-08-05T08:12:48.638Z,95557.97
2022-08-05T08:15:16.253Z,95560.44
2022-08-05T08:17:49.921Z,95565.25
2022-08-05T08:21:00.887Z,95558.97
2022-08-05T08:24:01.846Z,95570.13
2022-08-05T08:26:04.471Z,95570.13
2022-08-05T08:28:36.716Z,95570.13
2022-08-05T08:31:09.691Z,95587.03
2022-08-05T08:33:45.607Z,95573.91
2022-08-05T08:36:38.830Z,95571.50
2022-08-05T08:39:01.592Z,95586.00
2022-08-05T08:41:52.548Z,95591.59
2022-08-05T08:45:16.608Z,95588.06
2022-08-05T08:47:47.216Z,95593.94
2022-08-05T08:50:14.664Z,95597.91
2022-08-05T08:52:47.385Z,95598.28
2022-08-05T08:56:02.018Z,95597.94
2022-08-05T08:58:08.575Z,95604.34
2022-08-05T09:00:36.189Z,95599.22
2022-08-05T09:03:05.507Z,95607.56
2022-08-05T09:05:38.368Z,95606.84
2022-08-05T09:08:27.265Z,95604.16
2022-08-05T09:10:54.703Z,95611.66
2022-08-05T09:13:23.591Z,95603.75
2022-08-05T09:15:51.287Z,95616.03
2022-08-05T09:18:18.384Z,95619.19
2022-08-05T09:20:45.921Z,95631.03
2022-08-05T09:23:18.980Z,95629.84
2022-08-05T09:26:02.277Z,95622.34
2022-08-05T09:28:33.579Z,95619.94
2022-08-05T09:31:22.480Z,95615.97
2022-08-05T09:34:01.046Z,95620.34
2022-08-05T09:36:54.637Z,95618.75
2022-08-05T09:39:27.729Z,95619.16
2022-08-05T09:42:13.541Z,95612.84
2022-08-05T09:44:49.461Z,95613.59
2022-08-05T09:47:22.390Z,95615.56
2022-08-05T09:50:01.987Z,95610.78
2022-08-05T09:52:33.983Z,95621.47
2022-08-05T09:55:06.327Z,95614.38
2022-08-05T09:57:39.657Z,95610.44
2022-08-05T10:00:17.837Z,95620.75
2022-08-05T10:02:51.478Z,95630.63
2022-08-05T10:05:19.774Z,95621.06
2022-08-05T10:08:34.865Z,95623.75
2022-08-05T10:10:45.081Z,95626.22
2022-08-05T10:13:27.427Z,95624.66
2022-08-05T10:16:31.118Z,95625.06
2022-08-05T10:18:59.932Z,95624.66
2022-08-05T10:21:35.306Z,95613.97
2022-08-05T10:24:10.689Z,95623.00
2022-08-05T10:26:51.551Z,95622.63
2022-08-05T10:30:41.169Z,95617.03
2022-08-05T10:32:53.843Z,95611.88
2022-08-05T10:35:01.463Z,95606.34
2022-08-05T10:37:43.915Z,95603.09
2022-08-05T10:40:28.393Z,95614.44
2022-08-05T10:42:58.547Z,95617.16
2022-08-05T10:45:39.848Z,95616.34
2022-08-05T10:48:57.386Z,95609.16
2022-08-05T10:51:48.646Z,95601.16
2022-08-05T10:54:47.227Z,95610.97
2022-08-05T10:57:29.354Z,95604.25
2022-08-05T11:00:19.246Z,95612.94
2022-08-05T11:03:00.304Z,95608.16
2022-08-05T11:06:03.846Z,95602.22
2022-08-05T11:08:37.432Z,95599.09
2022-08-05T11:11:33.171Z,95597.84
2022-08-05T11:14:12.756Z,95600.38
2022-08-05T11:16:56.238Z,95600.06
2022-08-05T11:20:16.982Z,95609.59
2022-08-05T11:22:35.331Z,95614.69
2022-08-05T11:26:06.279Z,95617.13
2022-08-05T11:28:12.375Z,95613.56
2022-08-05T11:30:58.410Z,95613.47
2022-08-05T11:33:34.578Z,95600.06
2022-08-05T11:36:33.944Z,95601.13
2022-08-05T11:39:01.905Z,95603.81
2022-08-05T11:41:58.072Z,95598.69
2022-08-05T11:44:40.473Z,95600.41
2022-08-05T11:47:14.219Z,95598.34
2022-08-05T11:49:49.700Z,95596.13
2022-08-05T11:52:29.477Z,95595.72
2022-08-05T11:54:59.389Z,95601.06
2022-08-05T11:58:08.272Z,95593.28
2022-08-05T12:00:30.404Z,95597.63
2022-08-05T12:02:57.829Z,95597.19
2022-08-05T12:05:36.108Z,95589.22
2022-08-05T12:08:10.068Z,95584.81
2022-08-05T12:10:45.110Z,95584.63
2022-08-05T12:13:48.120Z,95581.38
2022-08-05T12:16:17.797Z,95585.81
2022-08-05T12:18:49.100Z,95586.75
2022-08-05T12:21:26.923Z,95590.47
2022-08-05T12:24:21.190Z,95581.28
2022-08-05T12:27:00.163Z,95587.59
2022-08-05T12:29:38.909Z,95583.97
2022-08-05T12:32:07.531Z,95577.78
2022-08-05T12:34:37.841Z,95578.66
2022-08-05T12:37:29.754Z,95575.00
2022-08-05T12:40:03.725Z,95576.66
2022-08-05T12:42:39.363Z,95585.28
2022-08-05T12:45:09.565Z,95586.19
2022-08-05T12:47:38.358Z,95574.59
2022-08-05T12:50:17.289Z,95580.72
2022-08-05T12:52:57.913Z,95570.22
2022-08-05T12:55:26.633Z,95567.75
2022-08-05T12:58:38.929Z,95562.63
2022-08-05T13:02:00.416Z,95565.69
2022-08-05T13:03:34.814Z,95568.56
2022-08-05T13:06:11.811Z,95564.59
2022-08-05T13:08:41.513Z,95564.59
2022-08-05T13:11:25.322Z,95563.56
2022-08-05T13:14:20.391Z,95556.44
2022-08-05T13:16:56.618Z,95548.91
2022-08-05T13:19:52.090Z,95541.69
2022-08-05T13:22:15.205Z,95541.16
2022-08-05T13:25:00.420Z,95542.13
2022-08-05T13:27:35.708Z,95530.88
2022-08-05T13:30:34.318Z,95530.22
2022-08-05T13:32:56.510Z,95535.38
2022-08-05T13:35:31.372Z,95529.50
2022-08-05T13:38:20.388Z,95531.06
2022-08-05T13:40:58.470Z,95524.72
2022-08-05T13:43:44.466Z,95525.41
2022-08-05T13:46:13.564Z,95527.44
2022-08-05T13:48:57.308Z,95531.59
2022-08-05T13:51:29.580Z,95527.31
2022-08-05T13:54:12.635Z,95520.69
2022-08-05T13:56:45.014Z,95511.03
2022-08-05T13:59:24.451Z,95501.53
2022-08-05T14:01:59.123Z,95512.94
2022-08-05T14:04:51.112Z,95512.56
2022-08-05T14:07:25.592Z,95507.56
2022-08-05T14:10:08.817Z,95507.16
2022-08-05T14:12:36.613Z,95505.47
2022-08-05T14:15:05.897Z,95500.47
2022-08-05T14:17:51.485Z,95502.34
2022-08-05T14:20:27.300Z,95500.28
2022-08-05T14:22:54.716Z,95502.72
2022-08-05T14:25:27.951Z,95492.09
2022-08-05T14:27:55.838Z,95491.13
2022-08-05T14:30:23.001Z,95483.63
2022-08-05T14:32:53.827Z,95486.75
2022-08-05T14:35:22.802Z,95487.22
2022-08-05T14:37:53.637Z,95484.91
2022-08-05T14:40:24.127Z,95480.91
2022-08-05T14:42:52.090Z,95484.75
2022-08-05T14:45:19.325Z,95473.91
2022-08-05T14:48:03.916Z,95474.53
2022-08-05T14:50:36.020Z,95472.72
2022-08-05T14:53:06.978Z,95468.22
2022-08-05T14:55:39.778Z,95472.69
2022-08-05T14:58:11.251Z,95468.13
2022-08-05T15:00:59.161Z,95470.25
2022-08-05T15:03:33.746Z,95473.50
2022-08-05T15:06:12.869Z,95467.47
2022-08-05T15:08:58.250Z,95466.19
2022-08-05T15:11:51.404Z,95469.38
2022-08-05T15:14:33.461Z,95471.63
2022-08-05T15:17:01.992Z,95464.19
2022-08-05T15:19:31.747Z,95466.44
2022-08-05T15:22:01.869Z,95465.28
2022-08-05T15:24:29.209Z,95457.97
2022-08-05T15:26:57.070Z,95454.78
2022-08-05T15:29:29.794Z,95456.78
2022-08-05T15:32:03.127Z,95455.66
2022-08-05T15:34:32.884Z,95456.44
2022-08-05T15:37:06.086Z,95462.16
2022-08-05T15:40:58.326Z,95467.47
2022-08-05T15:42:54.076Z,95470.63
2022-08-05T15:45:11.326Z,95471.47
2022-08-05T15:47:38.882Z,95469.03
2022-08-05T15:50:07.216Z,95473.53
2022-08-05T15:52:53.128Z,95477.97
2022-08-05T15:55:25.008Z,95479.50
2022-08-05T15:58:09.715Z,95471.84
2022-08-05T16:00:50.508Z,95478.16
2022-08-05T16:03:24.025Z,95472.88
2022-08-05T16:05:52.836Z,95469.09
2022-08-05T16:08:23.148Z,95470.69
2022-08-05T16:10:57.882Z,95476.97
2022-08-05T16:13:34.451Z,95471.47
2022-08-05T16:16:03.302Z,95473.47
2022-08-05T16:18:32.924Z,95472.28
2022-08-05T16:21:04.227Z,95484.81
2022-08-05T16:23:33.136Z,95485.72
2022-08-05T16:26:26.132Z,95486.38
2022-08-05T16:28:55.477Z,95489.06
2022-08-05T16:31:22.618Z,95483.94
2022-08-05T16:33:52.135Z,95487.19
2022-08-05T16:36:23.819Z,95482.91
2022-08-05T16:38:54.802Z,95489.59
2022-08-05T16:42:15.015Z,95488.78
2022-08-05T16:44:10.368Z,95490.41
2022-08-05T16:46:41.026Z,95490.41
2022-08-05T16:49:09.245Z,95493.72
2022-08-05T16:51:50.310Z,95495.09
2022-08-05T16:54:24.820Z,95480.44
2022-08-05T16:56:53.072Z,95485.28
2022-08-05T16:59:20.317Z,95482.19
2022-08-05T17:01:52.999Z,95484.66
2022-08-05T17:04:21.589Z,95479.94
2022-08-05T17:06:53.353Z,95477.97
2022-08-05T17:09:21.183Z,95488.25
2022-08-05T17:11:54.649Z,95489.03
2022-08-05T17:14:37.083Z,95488.28
2022-08-05T17:17:14.311Z,95495.84
2022-08-05T17:19:45.683Z,95505.34
2022-08-05T17:22:24.892Z,95514.84
2022-08-05T17:24:57.730Z,95516.44
2022-08-05T17:27:27.231Z,95514.84
2022-08-05T17:30:02.363Z,95510.13
2022-08-05T17:32:30.512Z,95519.19
2022-08-05T17:35:00.958Z,95515.56
2022-08-05T17:37:40.234Z,95522.69
2022-08-05T17:40:10.838Z,95524.25
2022-08-05T17:42:42.980Z,95534.09
2022-08-05T17:45:21.063Z,95532.53
2022-08-05T17:47:53.908Z,95540.78
2022-08-05T17:50:28.571Z,95538.41
2022-08-05T17:52:58.964Z,95555.34
2022-08-05T17:55:34.106Z,95552.56
2022-08-05T17:58:04.755Z,95554.47
2022-08-05T18:00:34.624Z,95557.19
2022-08-05T18:03:02.643Z,95563.06
2022-08-05T18:05:31.687Z,95566.22
2022-08-05T18:08:02.866Z,95570.47
2022-08-05T18:10:32.131Z,95561.38
2022-08-05T18:13:01.961Z,95569.19
2022-08-05T18:15:35.168Z,95571.91
2022-08-05T18:18:10.876Z,95579.22
2022-08-05T18:20:38.770Z,95576.88
2022-08-05T18:23:11.263Z,95584.28
2022-08-05T18:25:45.213Z,95586.19
2022-08-05T18:28:16.066Z,95584.16
2022-08-05T18:30:45.120Z,95581.31
2022-08-05T18:33:13.861Z,95586.25
2022-08-05T18:36:01.316Z,95586.09
2022-08-05T18:38:30.933Z,95587.91
2022-08-05T18:41:55.344Z,95588.91
2022-08-05T18:43:48.443Z,95600.28
2022-08-05T18:46:20.285Z,95610.34
2022-08-05T18:48:51.956Z,95612.97
2022-08-05T18:52:06.257Z,95621.56
2022-08-05T18:54:31.416Z,95633.19
2022-08-05T18:57:01.212Z,95623.59
2022-08-05T18:59:43.559Z,95626.59
2022-08-05T19:02:26.834Z,95634.31
2022-08-05T19:05:01.399Z,95645.19
2022-08-05T19:08:02.746Z,95643.34
2022-08-05T19:10:30.568Z,95650.81
2022-08-05T19:12:57.649Z,95653.09
2022-08-05T19:15:57.766Z,95655.03
2022-08-05T19:18:21.014Z,95648.63
2022-08-05T19:20:52.115Z,95651.94
2022-08-05T19:24:04.434Z,95648.03
2022-08-05T19:26:08.530Z,95655.03
2022-08-05T19:28:43.640Z,95662.31
2022-08-05T19:31:13.566Z,95661.44
2022-08-05T19:33:48.412Z,95667.19
2022-08-05T19:36:26.537Z,95665.22
2022-08-05T19:38:55.229Z,95674.88
2022-08-05T19:41:58.278Z,95666.47
2022-08-05T19:44:16.735Z,95680.41
2022-08-05T19:46:45.665Z,95682.16
2022-08-05T19:49:16.610Z,95671.22
2022-08-05T19:52:09.354Z,95671.22
2022-08-05T19:54:34.167Z,95667.97
2022-08-05T19:57:08.419Z,95667.13
2022-08-05T19:59:56.355Z,95676.50
2022-08-05T20:02:30.260Z,95667.84
2022-08-05T20:04:59.599Z,95667.78
2022-08-05T20:07:46.618Z,95674.34
2022-08-05T20:10:15.341Z,95672.25
2022-08-05T20:12:48.312Z,95668.50
2022-08-05T20:15:48.332Z,95672.09
2022-08-05T20:18:10.398Z,95672.31
2022-08-05T20:20:52.144Z,95680.41
2022-08-05T20:23:23.973Z,95689.38
2022-08-05T20:26:08.995Z,95684.25
2022-08-05T20:28:44.165Z,95689.44
2022-08-05T20:31:11.957Z,95686.75
2022-08-05T20:33:42.342Z,95687.56
2022-08-05T20:36:10.064Z,95696.59
2022-08-05T20:38:40.756Z,95699.34
2022-08-05T20:41:26.737Z,95703.22
2022-08-05T20:44:00.375Z,95715.31
2022-08-05T20:46:31.483Z,95712.13
2022-08-05T20:48:59.032Z,95723.50
2022-08-05T20:51:26.495Z,95739.88
2022-08-05T20:53:56.474Z,95732.75
2022-08-05T20:56:29.815Z,95735.03
2022-08-05T20:58:59.941Z,95753.81
2022-08-05T21:01:39.048Z,95755.34
2022-08-05T21:04:10.733Z,95760.31
2022-08-05T21:06:38.368Z,95757.91
2022-08-05T21:09:14.137Z,95761.75
2022-08-05T21:12:07.726Z,95759.28
2022-08-05T21:14:34.833Z,95766.22
2022-08-05T21:17:05.234Z,95765.25
2022-08-05T21:19:46.369Z,95774.13
2022-08-05T21:22:18.345Z,95775.00
2022-08-05T21:24:51.993Z,95773.22
2022-08-05T21:27:20.664Z,95774.19
2022-08-05T21:29:55.377Z,95778.97
2022-08-05T21:32:27.109Z,95775.16
2022-08-05T21:34:56.082Z,95784.38
2022-08-05T21:37:41.308Z,95788.88
2022-08-05T21:40:13.084Z,95780.47
2022-08-05T21:42:44.712Z,95774.19
2022-08-05T21:45:25.027Z,95773.06
2022-08-05T21:48:02.576Z,95771.53
2022-08-05T21:50:33.713Z,95781.06
2022-08-05T21:53:08.311Z,95781.66
2022-08-05T21:56:05.321Z,95805.41
2022-08-05T21:58:32.126Z,95831.19
2022-08-05T22:00:59.639Z,95840.75
2022-08-05T22:03:51.691Z,95868.28
2022-08-05T22:06:15.768Z,95888.69
2022-08-05T22:08:42.984Z,95886.53
2022-08-05T22:11:11.895Z,95880.88
2022-08-05T22:14:33.608Z,95896.16
2022-08-05T22:16:41.743Z,95910.91
2022-08-05T22:22:04.191Z,95929.25
2022-08-05T22:24:52.087Z,95939.97
2022-08-05T22:28:08.176Z,95941.00
2022-08-05T22:30:25.346Z,95959.25
2022-08-05T22:33:02.269Z,95968.03
2022-08-05T22:35:38.619Z,95960.13
2022-08-05T22:38:16.542Z,95961.84
2022-08-05T22:40:49.891Z,95960.09
2022-08-05T22:43:37.244Z,95958.41
2022-08-05T22:46:12.070Z,95958.16
2022-08-05T22:48:48.134Z,95958.78
2022-08-05T22:51:22.858Z,95972.50
2022-08-05T22:53:57.415Z,95987.09
2022-08-05T22:56:29.718Z,95993.66
2022-08-05T22:59:03.977Z,96003.78
2022-08-05T23:02:04.803Z,96005.59
2022-08-05T23:04:33.746Z,96019.63
2022-08-05T23:07:00.948Z,96006.16
2022-08-05T23:09:53.490Z,96004.22
2022-08-05T23:12:17.834Z,96005.22
2022-08-05T23:14:47.558Z,96007.25
2022-08-05T23:17:34.568Z,96004.59
2022-08-05T23:20:16.844Z,96002.09
2022-08-05T23:22:47.770Z,95987.88
2022-08-05T23:25:17.348Z,95985.28
2022-08-05T23:28:03.982Z,95992.78
2022-08-05T23:30:40.269Z,95996.31
2022-08-05T23:33:16.079Z,95999.69
2022-08-05T23:35:50.244Z,95998.97
2022-08-05T23:38:18.041Z,95995.22
2022-08-05T23:40:49.383Z,95994.25
2022-08-05T23:43:25.765Z,95991.84
2022-08-05T23:46:19.602Z,95995.56
2022-08-05T23:49:00.942Z,96009.53
2022-08-05T23:51:53.575Z,96019.72
2022-08-05T23:54:26.642Z,96015.81
2022-08-05T23:57:04.207Z,96011.16
2022-08-05T23:59:37.648Z,96014.16
